sensor_id;sensor_type;location;lat;lon;timestamp;P1;durP1;ratioP1;P2;durP2;ratioP2
52268;SDS011;38224;50.950;4.100;2023-06-22T00:01:16;10.35;;;5.30;;
52268;SDS011;38224;50.950;4.100;2023-06-22T00:03:41;10.90;;;6.00;;
52268;SDS011;38224;50.950;4.100;2023-06-22T00:06:07;10.60;;;5.40;;
52268;SDS011;38224;50.950;4.100;2023-06-22T00:08:32;8.47;;;5.70;;
52268;SDS011;38224;50.950;4.100;2023-06-22T00:10:57;10.80;;;5.97;;
52268;SDS011;38224;50.950;4.100;2023-06-22T00:13:22;11.77;;;6.27;;
52268;SDS011;38224;50.950;4.100;2023-06-22T00:15:48;7.22;;;5.55;;
52268;SDS011;38224;50.950;4.100;2023-06-22T00:18:13;11.00;;;5.67;;
52268;SDS011;38224;50.950;4.100;2023-06-22T00:20:38;9.33;;;5.70;;
52268;SDS011;38224;50.950;4.100;2023-06-22T00:23:04;8.88;;;5.40;;
52268;SDS011;38224;50.950;4.100;2023-06-22T00:25:34;12.02;;;6.35;;
52268;SDS011;38224;50.950;4.100;2023-06-22T00:27:59;10.43;;;5.97;;
52268;SDS011;38224;50.950;4.100;2023-06-22T00:30:25;8.80;;;5.82;;
52268;SDS011;38224;50.950;4.100;2023-06-22T00:32:50;10.88;;;6.68;;
52268;SDS011;38224;50.950;4.100;2023-06-22T00:35:15;11.03;;;6.67;;
52268;SDS011;38224;50.950;4.100;2023-06-22T00:37:40;11.33;;;5.90;;
52268;SDS011;38224;50.950;4.100;2023-06-22T00:40:07;9.80;;;6.60;;
52268;SDS011;38224;50.950;4.100;2023-06-22T00:42:37;10.02;;;6.25;;
52268;SDS011;38224;50.950;4.100;2023-06-22T00:45:03;10.88;;;6.65;;
52268;SDS011;38224;50.950;4.100;2023-06-22T00:47:28;11.40;;;6.60;;
52268;SDS011;38224;50.950;4.100;2023-06-22T00:49:53;8.95;;;6.05;;
52268;SDS011;38224;50.950;4.100;2023-06-22T00:52:19;9.40;;;6.10;;
52268;SDS011;38224;50.950;4.100;2023-06-22T00:54:50;9.98;;;6.63;;
52268;SDS011;38224;50.950;4.100;2023-06-22T00:57:15;10.57;;;6.35;;
52268;SDS011;38224;50.950;4.100;2023-06-22T00:59:42;15.88;;;7.57;;
52268;SDS011;38224;50.950;4.100;2023-06-22T01:02:07;10.30;;;6.68;;
52268;SDS011;38224;50.950;4.100;2023-06-22T01:04:37;9.00;;;6.80;;
52268;SDS011;38224;50.950;4.100;2023-06-22T01:07:05;9.50;;;6.90;;
52268;SDS011;38224;50.950;4.100;2023-06-22T01:09:34;11.40;;;7.57;;
52268;SDS011;38224;50.950;4.100;2023-06-22T01:12:01;10.77;;;6.00;;
52268;SDS011;38224;50.950;4.100;2023-06-22T01:14:29;12.65;;;6.93;;
52268;SDS011;38224;50.950;4.100;2023-06-22T01:16:57;13.07;;;7.07;;
52268;SDS011;38224;50.950;4.100;2023-06-22T01:21:51;10.88;;;6.80;;
52268;SDS011;38224;50.950;4.100;2023-06-22T01:24:22;10.43;;;6.30;;
52268;SDS011;38224;50.950;4.100;2023-06-22T01:29:31;17.88;;;7.70;;
52268;SDS011;38224;50.950;4.100;2023-06-22T01:31:58;11.70;;;7.30;;
52268;SDS011;38224;50.950;4.100;2023-06-22T01:34:24;12.63;;;7.65;;
52268;SDS011;38224;50.950;4.100;2023-06-22T01:36:50;11.13;;;7.25;;
52268;SDS011;38224;50.950;4.100;2023-06-22T01:39:15;11.90;;;6.97;;
52268;SDS011;38224;50.950;4.100;2023-06-22T01:41:41;16.58;;;8.40;;
52268;SDS011;38224;50.950;4.100;2023-06-22T01:44:07;13.63;;;8.40;;
52268;SDS011;38224;50.950;4.100;2023-06-22T01:46:34;13.90;;;7.90;;
52268;SDS011;38224;50.950;4.100;2023-06-22T01:48:59;13.10;;;7.95;;
52268;SDS011;38224;50.950;4.100;2023-06-22T01:51:25;12.32;;;7.57;;
52268;SDS011;38224;50.950;4.100;2023-06-22T01:53:50;13.80;;;8.00;;
52268;SDS011;38224;50.950;4.100;2023-06-22T01:56:16;16.40;;;7.55;;
52268;SDS011;38224;50.950;4.100;2023-06-22T01:58:44;12.35;;;7.15;;
52268;SDS011;38224;50.950;4.100;2023-06-22T02:01:11;11.60;;;7.15;;
52268;SDS011;38224;50.950;4.100;2023-06-22T02:06:36;11.30;;;7.35;;
52268;SDS011;38224;50.950;4.100;2023-06-22T02:09:02;14.18;;;8.25;;
52268;SDS011;38224;50.950;4.100;2023-06-22T02:11:29;14.82;;;8.40;;
52268;SDS011;38224;50.950;4.100;2023-06-22T02:13:56;18.48;;;9.60;;
52268;SDS011;38224;50.950;4.100;2023-06-22T02:16:22;15.30;;;9.00;;
52268;SDS011;38224;50.950;4.100;2023-06-22T02:18:50;16.30;;;9.90;;
52268;SDS011;38224;50.950;4.100;2023-06-22T02:21:19;21.95;;;10.63;;
52268;SDS011;38224;50.950;4.100;2023-06-22T02:23:45;20.33;;;9.35;;
52268;SDS011;38224;50.950;4.100;2023-06-22T02:26:11;14.77;;;8.50;;
52268;SDS011;38224;50.950;4.100;2023-06-22T02:28:36;17.75;;;9.23;;
52268;SDS011;38224;50.950;4.100;2023-06-22T02:31:02;14.90;;;9.23;;
52268;SDS011;38224;50.950;4.100;2023-06-22T02:33:27;16.88;;;9.18;;
52268;SDS011;38224;50.950;4.100;2023-06-22T02:35:52;14.55;;;8.82;;
52268;SDS011;38224;50.950;4.100;2023-06-22T02:38:18;15.48;;;9.48;;
52268;SDS011;38224;50.950;4.100;2023-06-22T02:40:44;16.17;;;9.48;;
52268;SDS011;38224;50.950;4.100;2023-06-22T02:43:09;15.35;;;9.23;;
52268;SDS011;38224;50.950;4.100;2023-06-22T02:45:34;17.87;;;8.93;;
52268;SDS011;38224;50.950;4.100;2023-06-22T02:48:00;14.60;;;8.73;;
52268;SDS011;38224;50.950;4.100;2023-06-22T02:50:25;16.08;;;10.23;;
52268;SDS011;38224;50.950;4.100;2023-06-22T02:52:50;16.80;;;8.25;;
52268;SDS011;38224;50.950;4.100;2023-06-22T02:55:16;12.50;;;8.50;;
52268;SDS011;38224;50.950;4.100;2023-06-22T02:57:41;15.47;;;8.90;;
52268;SDS011;38224;50.950;4.100;2023-06-22T03:00:09;16.77;;;10.23;;
52268;SDS011;38224;50.950;4.100;2023-06-22T03:02:42;14.02;;;8.07;;
52268;SDS011;38224;50.950;4.100;2023-06-22T03:05:07;17.95;;;8.60;;
52268;SDS011;38224;50.950;4.100;2023-06-22T03:07:39;19.20;;;9.45;;
52268;SDS011;38224;50.950;4.100;2023-06-22T03:10:04;15.63;;;9.18;;
52268;SDS011;38224;50.950;4.100;2023-06-22T03:12:30;17.13;;;8.68;;
52268;SDS011;38224;50.950;4.100;2023-06-22T03:14:55;12.20;;;8.17;;
52268;SDS011;38224;50.950;4.100;2023-06-22T03:17:20;14.63;;;8.63;;
52268;SDS011;38224;50.950;4.100;2023-06-22T03:19:45;15.10;;;9.23;;
52268;SDS011;38224;50.950;4.100;2023-06-22T03:22:11;15.77;;;8.93;;
52268;SDS011;38224;50.950;4.100;2023-06-22T03:24:36;15.40;;;8.45;;
52268;SDS011;38224;50.950;4.100;2023-06-22T03:27:04;14.40;;;8.23;;
52268;SDS011;38224;50.950;4.100;2023-06-22T03:29:30;13.15;;;8.63;;
52268;SDS011;38224;50.950;4.100;2023-06-22T03:31:56;19.10;;;8.45;;
52268;SDS011;38224;50.950;4.100;2023-06-22T03:34:21;14.90;;;8.93;;
52268;SDS011;38224;50.950;4.100;2023-06-22T03:36:46;14.10;;;8.60;;
52268;SDS011;38224;50.950;4.100;2023-06-22T03:39:11;15.50;;;8.27;;
52268;SDS011;38224;50.950;4.100;2023-06-22T03:41:37;14.10;;;8.60;;
52268;SDS011;38224;50.950;4.100;2023-06-22T03:44:02;15.75;;;8.55;;
52268;SDS011;38224;50.950;4.100;2023-06-22T03:46:27;17.38;;;8.70;;
52268;SDS011;38224;50.950;4.100;2023-06-22T03:48:53;14.57;;;9.18;;
52268;SDS011;38224;50.950;4.100;2023-06-22T03:51:18;13.73;;;8.38;;
52268;SDS011;38224;50.950;4.100;2023-06-22T03:53:43;13.50;;;8.13;;
52268;SDS011;38224;50.950;4.100;2023-06-22T03:56:08;15.15;;;8.65;;
52268;SDS011;38224;50.950;4.100;2023-06-22T03:58:34;14.20;;;8.00;;
52268;SDS011;38224;50.950;4.100;2023-06-22T04:01:00;13.95;;;7.72;;
52268;SDS011;38224;50.950;4.100;2023-06-22T04:03:25;13.32;;;8.50;;
52268;SDS011;38224;50.950;4.100;2023-06-22T04:05:51;16.27;;;8.88;;
52268;SDS011;38224;50.950;4.100;2023-06-22T04:08:16;14.70;;;8.67;;
52268;SDS011;38224;50.950;4.100;2023-06-22T04:10:41;12.70;;;7.75;;
52268;SDS011;38224;50.950;4.100;2023-06-22T04:13:07;17.80;;;8.63;;
52268;SDS011;38224;50.950;4.100;2023-06-22T04:15:32;15.70;;;9.30;;
52268;SDS011;38224;50.950;4.100;2023-06-22T04:17:57;15.13;;;8.90;;
52268;SDS011;38224;50.950;4.100;2023-06-22T04:20:23;13.50;;;8.90;;
52268;SDS011;38224;50.950;4.100;2023-06-22T04:22:51;18.10;;;10.18;;
52268;SDS011;38224;50.950;4.100;2023-06-22T04:25:16;16.02;;;9.75;;
52268;SDS011;38224;50.950;4.100;2023-06-22T04:27:42;17.40;;;9.40;;
52268;SDS011;38224;50.950;4.100;2023-06-22T04:30:07;14.43;;;9.67;;
52268;SDS011;38224;50.950;4.100;2023-06-22T04:32:33;14.88;;;9.10;;
52268;SDS011;38224;50.950;4.100;2023-06-22T04:34:58;20.08;;;9.52;;
52268;SDS011;38224;50.950;4.100;2023-06-22T04:37:25;15.57;;;8.82;;
52268;SDS011;38224;50.950;4.100;2023-06-22T04:39:50;12.75;;;8.68;;
52268;SDS011;38224;50.950;4.100;2023-06-22T04:42:16;13.40;;;9.13;;
52268;SDS011;38224;50.950;4.100;2023-06-22T04:44:41;14.95;;;9.82;;
52268;SDS011;38224;50.950;4.100;2023-06-22T04:47:07;13.55;;;9.05;;
52268;SDS011;38224;50.950;4.100;2023-06-22T04:49:33;21.38;;;10.07;;
52268;SDS011;38224;50.950;4.100;2023-06-22T04:52:01;14.32;;;9.45;;
52268;SDS011;38224;50.950;4.100;2023-06-22T04:54:27;13.07;;;8.57;;
52268;SDS011;38224;50.950;4.100;2023-06-22T04:56:52;13.68;;;9.82;;
52268;SDS011;38224;50.950;4.100;2023-06-22T04:59:25;16.15;;;9.75;;
52268;SDS011;38224;50.950;4.100;2023-06-22T05:01:53;17.58;;;9.60;;
52268;SDS011;38224;50.950;4.100;2023-06-22T05:04:18;13.77;;;9.25;;
52268;SDS011;38224;50.950;4.100;2023-06-22T05:06:44;16.67;;;9.05;;
52268;SDS011;38224;50.950;4.100;2023-06-22T05:09:10;12.25;;;8.73;;
52268;SDS011;38224;50.950;4.100;2023-06-22T05:11:37;15.15;;;9.70;;
52268;SDS011;38224;50.950;4.100;2023-06-22T05:14:02;13.68;;;9.43;;
52268;SDS011;38224;50.950;4.100;2023-06-22T05:16:27;17.40;;;9.37;;
52268;SDS011;38224;50.950;4.100;2023-06-22T05:18:53;13.90;;;9.33;;
52268;SDS011;38224;50.950;4.100;2023-06-22T05:21:21;14.40;;;8.90;;
52268;SDS011;38224;50.950;4.100;2023-06-22T05:23:46;14.75;;;9.80;;
52268;SDS011;38224;50.950;4.100;2023-06-22T05:26:12;13.83;;;9.03;;
52268;SDS011;38224;50.950;4.100;2023-06-22T05:28:37;14.47;;;8.77;;
52268;SDS011;38224;50.950;4.100;2023-06-22T05:31:02;16.47;;;9.57;;
52268;SDS011;38224;50.950;4.100;2023-06-22T05:33:29;15.07;;;9.57;;
52268;SDS011;38224;50.950;4.100;2023-06-22T05:35:54;17.80;;;9.48;;
52268;SDS011;38224;50.950;4.100;2023-06-22T05:38:19;16.13;;;8.77;;
52268;SDS011;38224;50.950;4.100;2023-06-22T05:40:44;14.47;;;9.50;;
52268;SDS011;38224;50.950;4.100;2023-06-22T05:43:10;20.42;;;10.27;;
52268;SDS011;38224;50.950;4.100;2023-06-22T05:45:35;20.05;;;11.05;;
52268;SDS011;38224;50.950;4.100;2023-06-22T05:48:00;21.67;;;10.27;;
52268;SDS011;38224;50.950;4.100;2023-06-22T05:50:26;15.48;;;9.15;;
52268;SDS011;38224;50.950;4.100;2023-06-22T05:52:51;16.52;;;9.73;;
52268;SDS011;38224;50.950;4.100;2023-06-22T05:55:17;20.70;;;10.80;;
52268;SDS011;38224;50.950;4.100;2023-06-22T05:57:43;17.80;;;9.60;;
52268;SDS011;38224;50.950;4.100;2023-06-22T06:00:09;14.00;;;9.48;;
52268;SDS011;38224;50.950;4.100;2023-06-22T06:02:36;16.65;;;9.95;;
52268;SDS011;38224;50.950;4.100;2023-06-22T06:05:01;17.50;;;9.68;;
52268;SDS011;38224;50.950;4.100;2023-06-22T06:07:28;16.95;;;10.70;;
52268;SDS011;38224;50.950;4.100;2023-06-22T06:09:53;20.27;;;10.57;;
52268;SDS011;38224;50.950;4.100;2023-06-22T06:12:19;18.53;;;10.93;;
52268;SDS011;38224;50.950;4.100;2023-06-22T06:14:44;16.60;;;10.93;;
52268;SDS011;38224;50.950;4.100;2023-06-22T06:17:09;14.00;;;10.07;;
52268;SDS011;38224;50.950;4.100;2023-06-22T06:19:34;16.50;;;10.50;;
52268;SDS011;38224;50.950;4.100;2023-06-22T06:22:00;23.65;;;11.93;;
52268;SDS011;38224;50.950;4.100;2023-06-22T06:24:25;20.50;;;11.20;;
52268;SDS011;38224;50.950;4.100;2023-06-22T06:26:50;20.23;;;13.48;;
52268;SDS011;38224;50.950;4.100;2023-06-22T06:29:16;20.75;;;10.82;;
52268;SDS011;38224;50.950;4.100;2023-06-22T06:31:41;21.93;;;11.60;;
52268;SDS011;38224;50.950;4.100;2023-06-22T06:34:07;17.42;;;11.73;;
52268;SDS011;38224;50.950;4.100;2023-06-22T06:36:32;18.05;;;11.35;;
52268;SDS011;38224;50.950;4.100;2023-06-22T06:38:57;24.45;;;13.15;;
52268;SDS011;38224;50.950;4.100;2023-06-22T06:41:23;20.45;;;12.55;;
52268;SDS011;38224;50.950;4.100;2023-06-22T06:43:48;20.70;;;13.88;;
52268;SDS011;38224;50.950;4.100;2023-06-22T06:46:14;19.52;;;13.05;;
52268;SDS011;38224;50.950;4.100;2023-06-22T06:48:39;20.98;;;13.32;;
52268;SDS011;38224;50.950;4.100;2023-06-22T06:51:05;21.83;;;14.23;;
52268;SDS011;38224;50.950;4.100;2023-06-22T06:53:30;20.40;;;14.18;;
52268;SDS011;38224;50.950;4.100;2023-06-22T06:55:55;23.95;;;15.30;;
52268;SDS011;38224;50.950;4.100;2023-06-22T06:58:21;22.88;;;14.38;;
52268;SDS011;38224;50.950;4.100;2023-06-22T07:00:48;21.60;;;14.25;;
52268;SDS011;38224;50.950;4.100;2023-06-22T07:03:13;21.20;;;15.10;;
52268;SDS011;38224;50.950;4.100;2023-06-22T07:05:39;26.15;;;15.40;;
52268;SDS011;38224;50.950;4.100;2023-06-22T07:08:04;20.30;;;14.30;;
52268;SDS011;38224;50.950;4.100;2023-06-22T07:10:29;22.90;;;15.35;;
52268;SDS011;38224;50.950;4.100;2023-06-22T07:12:54;25.35;;;15.95;;
52268;SDS011;38224;50.950;4.100;2023-06-22T07:15:20;25.02;;;15.77;;
52268;SDS011;38224;50.950;4.100;2023-06-22T07:17:45;26.33;;;16.88;;
52268;SDS011;38224;50.950;4.100;2023-06-22T07:20:11;27.27;;;16.53;;
52268;SDS011;38224;50.950;4.100;2023-06-22T07:22:39;30.17;;;17.25;;
52268;SDS011;38224;50.950;4.100;2023-06-22T07:25:05;24.80;;;16.13;;
52268;SDS011;38224;50.950;4.100;2023-06-22T07:27:43;22.00;;;15.10;;
52268;SDS011;38224;50.950;4.100;2023-06-22T07:30:09;21.17;;;15.57;;
52268;SDS011;38224;50.950;4.100;2023-06-22T07:32:35;21.92;;;15.68;;
52268;SDS011;38224;50.950;4.100;2023-06-22T07:35:00;24.55;;;15.02;;
52268;SDS011;38224;50.950;4.100;2023-06-22T07:37:26;24.20;;;15.70;;
52268;SDS011;38224;50.950;4.100;2023-06-22T07:39:52;23.75;;;14.98;;
52268;SDS011;38224;50.950;4.100;2023-06-22T07:42:19;29.55;;;17.25;;
52268;SDS011;38224;50.950;4.100;2023-06-22T07:44:44;24.95;;;15.40;;
52268;SDS011;38224;50.950;4.100;2023-06-22T07:47:09;28.40;;;16.33;;
52268;SDS011;38224;50.950;4.100;2023-06-22T07:49:34;25.02;;;14.95;;
52268;SDS011;38224;50.950;4.100;2023-06-22T07:52:00;25.70;;;16.27;;
52268;SDS011;38224;50.950;4.100;2023-06-22T07:54:26;25.10;;;16.42;;
52268;SDS011;38224;50.950;4.100;2023-06-22T07:56:51;25.20;;;16.63;;
52268;SDS011;38224;50.950;4.100;2023-06-22T07:59:18;28.35;;;16.73;;
52268;SDS011;38224;50.950;4.100;2023-06-22T08:01:43;23.33;;;16.60;;
52268;SDS011;38224;50.950;4.100;2023-06-22T08:04:09;25.25;;;17.13;;
52268;SDS011;38224;50.950;4.100;2023-06-22T08:06:34;20.67;;;15.40;;
52268;SDS011;38224;50.950;4.100;2023-06-22T08:08:59;24.00;;;16.37;;
52268;SDS011;38224;50.950;4.100;2023-06-22T08:11:25;24.20;;;16.50;;
52268;SDS011;38224;50.950;4.100;2023-06-22T08:13:50;24.08;;;16.02;;
52268;SDS011;38224;50.950;4.100;2023-06-22T08:16:16;23.17;;;15.95;;
52268;SDS011;38224;50.950;4.100;2023-06-22T08:18:41;20.88;;;15.90;;
52268;SDS011;38224;50.950;4.100;2023-06-22T08:21:06;24.60;;;16.43;;
52268;SDS011;38224;50.950;4.100;2023-06-22T08:23:31;23.55;;;16.45;;
52268;SDS011;38224;50.950;4.100;2023-06-22T08:25:57;25.10;;;16.17;;
52268;SDS011;38224;50.950;4.100;2023-06-22T08:28:22;21.20;;;16.30;;
52268;SDS011;38224;50.950;4.100;2023-06-22T08:30:48;21.17;;;16.67;;
52268;SDS011;38224;50.950;4.100;2023-06-22T08:33:13;22.30;;;14.93;;
52268;SDS011;38224;50.950;4.100;2023-06-22T08:35:38;23.25;;;16.58;;
52268;SDS011;38224;50.950;4.100;2023-06-22T08:38:04;24.60;;;16.70;;
52268;SDS011;38224;50.950;4.100;2023-06-22T08:40:29;22.07;;;16.10;;
52268;SDS011;38224;50.950;4.100;2023-06-22T08:42:55;22.48;;;15.23;;
52268;SDS011;38224;50.950;4.100;2023-06-22T08:45:20;24.08;;;14.57;;
52268;SDS011;38224;50.950;4.100;2023-06-22T08:47:45;26.00;;;16.70;;
52268;SDS011;38224;50.950;4.100;2023-06-22T08:50:11;24.02;;;15.77;;
52268;SDS011;38224;50.950;4.100;2023-06-22T08:52:37;19.55;;;14.88;;
52268;SDS011;38224;50.950;4.100;2023-06-22T08:55:03;28.75;;;16.25;;
52268;SDS011;38224;50.950;4.100;2023-06-22T08:57:29;23.98;;;16.33;;
52268;SDS011;38224;50.950;4.100;2023-06-22T08:59:55;18.25;;;14.02;;
52268;SDS011;38224;50.950;4.100;2023-06-22T09:02:23;20.73;;;14.55;;
52268;SDS011;38224;50.950;4.100;2023-06-22T09:04:48;19.90;;;13.32;;
52268;SDS011;38224;50.950;4.100;2023-06-22T09:07:14;19.55;;;13.48;;
52268;SDS011;38224;50.950;4.100;2023-06-22T09:09:47;21.15;;;15.88;;
52268;SDS011;38224;50.950;4.100;2023-06-22T09:12:12;19.63;;;13.93;;
52268;SDS011;38224;50.950;4.100;2023-06-22T09:14:37;23.40;;;14.18;;
52268;SDS011;38224;50.950;4.100;2023-06-22T09:17:03;20.75;;;13.55;;
52268;SDS011;38224;50.950;4.100;2023-06-22T09:19:28;19.42;;;12.30;;
52268;SDS011;38224;50.950;4.100;2023-06-22T09:21:53;23.20;;;14.02;;
52268;SDS011;38224;50.950;4.100;2023-06-22T09:24:18;20.48;;;12.93;;
52268;SDS011;38224;50.950;4.100;2023-06-22T09:26:44;21.30;;;13.50;;
52268;SDS011;38224;50.950;4.100;2023-06-22T09:29:09;19.30;;;12.95;;
52268;SDS011;38224;50.950;4.100;2023-06-22T09:31:35;21.40;;;14.33;;
52268;SDS011;38224;50.950;4.100;2023-06-22T09:34:00;18.02;;;12.80;;
52268;SDS011;38224;50.950;4.100;2023-06-22T09:36:25;21.67;;;13.87;;
52268;SDS011;38224;50.950;4.100;2023-06-22T09:38:50;23.77;;;13.20;;
52268;SDS011;38224;50.950;4.100;2023-06-22T09:43:48;17.43;;;11.87;;
52268;SDS011;38224;50.950;4.100;2023-06-22T09:46:15;16.05;;;13.15;;
52268;SDS011;38224;50.950;4.100;2023-06-22T09:48:40;17.63;;;12.82;;
52268;SDS011;38224;50.950;4.100;2023-06-22T09:51:05;16.67;;;12.93;;
52268;SDS011;38224;50.950;4.100;2023-06-22T09:53:30;17.50;;;12.30;;
52268;SDS011;38224;50.950;4.100;2023-06-22T09:55:56;21.83;;;13.83;;
52268;SDS011;38224;50.950;4.100;2023-06-22T09:58:22;18.98;;;14.13;;
52268;SDS011;38224;50.950;4.100;2023-06-22T10:00:47;22.15;;;14.48;;
52268;SDS011;38224;50.950;4.100;2023-06-22T10:03:12;18.80;;;15.10;;
52268;SDS011;38224;50.950;4.100;2023-06-22T10:05:38;24.30;;;16.10;;
52268;SDS011;38224;50.950;4.100;2023-06-22T10:08:03;23.15;;;17.13;;
52268;SDS011;38224;50.950;4.100;2023-06-22T10:10:29;27.97;;;18.23;;
52268;SDS011;38224;50.950;4.100;2023-06-22T10:12:55;28.35;;;19.15;;
52268;SDS011;38224;50.950;4.100;2023-06-22T10:15:20;25.48;;;19.80;;
52268;SDS011;38224;50.950;4.100;2023-06-22T10:17:46;29.23;;;18.33;;
52268;SDS011;38224;50.950;4.100;2023-06-22T10:20:12;29.52;;;20.40;;
52268;SDS011;38224;50.950;4.100;2023-06-22T10:22:38;37.80;;;22.90;;
52268;SDS011;38224;50.950;4.100;2023-06-22T10:25:04;29.20;;;20.65;;
52268;SDS011;38224;50.950;4.100;2023-06-22T10:27:29;30.23;;;21.13;;
52268;SDS011;38224;50.950;4.100;2023-06-22T10:29:56;32.55;;;21.90;;
52268;SDS011;38224;50.950;4.100;2023-06-22T10:32:21;31.42;;;22.63;;
52268;SDS011;38224;50.950;4.100;2023-06-22T10:34:47;34.03;;;21.03;;
52268;SDS011;38224;50.950;4.100;2023-06-22T10:37:12;32.43;;;22.37;;
52268;SDS011;38224;50.950;4.100;2023-06-22T10:39:37;31.93;;;21.93;;
52268;SDS011;38224;50.950;4.100;2023-06-22T10:42:02;32.78;;;22.55;;
52268;SDS011;38224;50.950;4.100;2023-06-22T10:44:28;38.10;;;22.73;;
52268;SDS011;38224;50.950;4.100;2023-06-22T10:46:53;38.47;;;23.27;;
52268;SDS011;38224;50.950;4.100;2023-06-22T10:49:18;35.00;;;24.27;;
52268;SDS011;38224;50.950;4.100;2023-06-22T10:51:44;32.47;;;23.52;;
52268;SDS011;38224;50.950;4.100;2023-06-22T10:54:09;36.33;;;24.52;;
52268;SDS011;38224;50.950;4.100;2023-06-22T10:56:34;38.08;;;27.20;;
52268;SDS011;38224;50.950;4.100;2023-06-22T10:59:00;47.70;;;28.73;;
52268;SDS011;38224;50.950;4.100;2023-06-22T11:01:25;42.65;;;27.70;;
52268;SDS011;38224;50.950;4.100;2023-06-22T11:03:50;42.93;;;28.17;;
52268;SDS011;38224;50.950;4.100;2023-06-22T11:06:15;43.07;;;29.23;;
52268;SDS011;38224;50.950;4.100;2023-06-22T11:08:43;46.53;;;30.77;;
52268;SDS011;38224;50.950;4.100;2023-06-22T11:11:08;42.90;;;31.33;;
52268;SDS011;38224;50.950;4.100;2023-06-22T11:13:34;38.63;;;26.93;;
52268;SDS011;38224;50.950;4.100;2023-06-22T11:15:59;44.47;;;27.93;;
52268;SDS011;38224;50.950;4.100;2023-06-22T11:18:24;38.37;;;26.13;;
52268;SDS011;38224;50.950;4.100;2023-06-22T11:20:49;38.67;;;26.25;;
52268;SDS011;38224;50.950;4.100;2023-06-22T11:23:15;39.13;;;26.27;;
52268;SDS011;38224;50.950;4.100;2023-06-22T11:25:40;36.33;;;24.70;;
52268;SDS011;38224;50.950;4.100;2023-06-22T11:28:07;42.88;;;26.23;;
52268;SDS011;38224;50.950;4.100;2023-06-22T11:30:32;38.17;;;27.03;;
52268;SDS011;38224;50.950;4.100;2023-06-22T11:32:59;46.53;;;29.20;;
52268;SDS011;38224;50.950;4.100;2023-06-22T11:35:24;42.30;;;30.00;;
52268;SDS011;38224;50.950;4.100;2023-06-22T11:37:50;44.88;;;30.20;;
52268;SDS011;38224;50.950;4.100;2023-06-22T11:40:15;41.03;;;29.77;;
52268;SDS011;38224;50.950;4.100;2023-06-22T11:42:42;38.60;;;27.90;;
52268;SDS011;38224;50.950;4.100;2023-06-22T11:45:07;36.00;;;25.93;;
52268;SDS011;38224;50.950;4.100;2023-06-22T11:47:33;31.95;;;22.50;;
52268;SDS011;38224;50.950;4.100;2023-06-22T11:49:58;27.25;;;21.33;;
52268;SDS011;38224;50.950;4.100;2023-06-22T11:52:23;29.43;;;20.93;;
52268;SDS011;38224;50.950;4.100;2023-06-22T11:54:49;28.17;;;21.07;;
52268;SDS011;38224;50.950;4.100;2023-06-22T11:57:14;26.17;;;19.63;;
52268;SDS011;38224;50.950;4.100;2023-06-22T11:59:39;30.42;;;21.10;;
52268;SDS011;38224;50.950;4.100;2023-06-22T12:02:04;27.80;;;20.27;;
52268;SDS011;38224;50.950;4.100;2023-06-22T12:04:32;29.75;;;21.60;;
52268;SDS011;38224;50.950;4.100;2023-06-22T12:06:59;28.52;;;19.48;;
52268;SDS011;38224;50.950;4.100;2023-06-22T12:09:24;27.03;;;19.87;;
52268;SDS011;38224;50.950;4.100;2023-06-22T12:11:49;29.90;;;20.47;;
52268;SDS011;38224;50.950;4.100;2023-06-22T12:14:15;24.95;;;19.67;;
52268;SDS011;38224;50.950;4.100;2023-06-22T12:16:40;30.50;;;20.83;;
52268;SDS011;38224;50.950;4.100;2023-06-22T12:19:05;26.85;;;19.77;;
52268;SDS011;38224;50.950;4.100;2023-06-22T12:21:30;28.92;;;19.27;;
52268;SDS011;38224;50.950;4.100;2023-06-22T12:23:56;25.52;;;20.15;;
52268;SDS011;38224;50.950;4.100;2023-06-22T12:26:21;27.08;;;18.85;;
52268;SDS011;38224;50.950;4.100;2023-06-22T12:28:47;29.23;;;20.65;;
52268;SDS011;38224;50.950;4.100;2023-06-22T12:31:12;30.80;;;20.65;;
52268;SDS011;38224;50.950;4.100;2023-06-22T12:33:37;28.57;;;19.57;;
52268;SDS011;38224;50.950;4.100;2023-06-22T12:36:03;34.23;;;20.37;;
52268;SDS011;38224;50.950;4.100;2023-06-22T12:38:29;30.30;;;21.10;;
52268;SDS011;38224;50.950;4.100;2023-06-22T12:40:55;29.80;;;20.67;;
52268;SDS011;38224;50.950;4.100;2023-06-22T12:43:20;34.97;;;20.83;;
52268;SDS011;38224;50.950;4.100;2023-06-22T12:45:45;29.93;;;21.13;;
52268;SDS011;38224;50.950;4.100;2023-06-22T12:48:10;37.83;;;22.30;;
52268;SDS011;38224;50.950;4.100;2023-06-22T12:50:36;29.97;;;20.17;;
52268;SDS011;38224;50.950;4.100;2023-06-22T12:53:01;33.47;;;22.73;;
52268;SDS011;38224;50.950;4.100;2023-06-22T12:55:28;35.15;;;23.88;;
52268;SDS011;38224;50.950;4.100;2023-06-22T12:57:53;33.05;;;23.85;;
52268;SDS011;38224;50.950;4.100;2023-06-22T13:00:19;33.10;;;22.58;;
52268;SDS011;38224;50.950;4.100;2023-06-22T13:02:44;28.27;;;20.20;;
52268;SDS011;38224;50.950;4.100;2023-06-22T13:05:10;30.58;;;20.42;;
52268;SDS011;38224;50.950;4.100;2023-06-22T13:07:35;32.42;;;22.02;;
52268;SDS011;38224;50.950;4.100;2023-06-22T13:10:00;29.98;;;20.45;;
52268;SDS011;38224;50.950;4.100;2023-06-22T13:12:26;29.83;;;20.88;;
52268;SDS011;38224;50.950;4.100;2023-06-22T13:14:51;30.80;;;20.23;;
52268;SDS011;38224;50.950;4.100;2023-06-22T13:17:16;25.87;;;19.10;;
52268;SDS011;38224;50.950;4.100;2023-06-22T13:19:45;31.60;;;19.48;;
52268;SDS011;38224;50.950;4.100;2023-06-22T13:22:27;34.05;;;21.13;;
52268;SDS011;38224;50.950;4.100;2023-06-22T13:24:54;27.33;;;19.83;;
52268;SDS011;38224;50.950;4.100;2023-06-22T13:27:19;28.42;;;19.52;;
52268;SDS011;38224;50.950;4.100;2023-06-22T13:29:44;26.42;;;19.63;;
52268;SDS011;38224;50.950;4.100;2023-06-22T13:32:10;29.48;;;20.27;;
52268;SDS011;38224;50.950;4.100;2023-06-22T13:34:35;30.90;;;20.38;;
52268;SDS011;38224;50.950;4.100;2023-06-22T13:37:01;34.17;;;21.75;;
52268;SDS011;38224;50.950;4.100;2023-06-22T13:39:29;34.67;;;22.10;;
52268;SDS011;38224;50.950;4.100;2023-06-22T13:41:54;33.55;;;22.23;;
52268;SDS011;38224;50.950;4.100;2023-06-22T13:44:19;30.20;;;21.73;;
52268;SDS011;38224;50.950;4.100;2023-06-22T13:46:47;35.95;;;21.92;;
52268;SDS011;38224;50.950;4.100;2023-06-22T13:49:12;39.92;;;23.98;;
52268;SDS011;38224;50.950;4.100;2023-06-22T13:51:37;37.37;;;23.17;;
52268;SDS011;38224;50.950;4.100;2023-06-22T13:54:02;40.07;;;26.33;;
52268;SDS011;38224;50.950;4.100;2023-06-22T13:56:28;34.72;;;24.40;;
52268;SDS011;38224;50.950;4.100;2023-06-22T13:58:53;33.33;;;23.03;;
52268;SDS011;38224;50.950;4.100;2023-06-22T14:01:18;35.03;;;24.37;;
52268;SDS011;38224;50.950;4.100;2023-06-22T14:03:44;32.10;;;23.65;;
52268;SDS011;38224;50.950;4.100;2023-06-22T14:06:11;35.00;;;23.90;;
52268;SDS011;38224;50.950;4.100;2023-06-22T14:08:37;33.78;;;24.10;;
52268;SDS011;38224;50.950;4.100;2023-06-22T14:11:02;37.03;;;23.80;;
52268;SDS011;38224;50.950;4.100;2023-06-22T14:13:27;39.33;;;23.13;;
52268;SDS011;38224;50.950;4.100;2023-06-22T14:15:53;34.17;;;23.20;;
52268;SDS011;38224;50.950;4.100;2023-06-22T14:18:19;35.10;;;23.02;;
52268;SDS011;38224;50.950;4.100;2023-06-22T14:20:44;37.63;;;24.95;;
52268;SDS011;38224;50.950;4.100;2023-06-22T14:23:09;36.83;;;23.83;;
52268;SDS011;38224;50.950;4.100;2023-06-22T14:25:35;37.90;;;25.27;;
52268;SDS011;38224;50.950;4.100;2023-06-22T14:28:00;33.67;;;23.27;;